Armony — 5IM517 — position and weather

sailwx.info

Track history (hours):
 
Tides and Currents Weather Stations Pressure Air Temp Water Temp Dewpoint Dewpoint Depression Visibility Wind Speed Wind Dir Waves Ship Positions

Armony

Last reported at 2015-Apr-28 12:28 UTC. Time now 2015-May-03 10:50 UTC.
Position N 41°17' E 029°01'.

Length 70 m; draft 4.5 m.

Type: Ship. MMSI: 677041700.

Date/timePositionNaut miles runAvg speedWind from/ knotsBaromVisibWave heightAir tempDewpointWater temp
2015-Apr-28 12:28N 41°17' E 029°01'  
2015-Apr-23 08:33N 40°58' E 028°60'6 5.6
2015-Apr-23 07:32N 40°53' E 029°01'7 6.9
2015-Apr-23 06:33N 40°51' E 029°10'2 1.7
2015-Apr-23 05:30N 40°52' E 029°12'0 0.0
2015-Apr-23 04:25N 40°52' E 029°12'0 0.0
2015-Apr-23 03:13N 40°52' E 029°12'0 0.0
2015-Apr-23 02:25N 40°52' E 029°12'0 0.1
2015-Apr-23 01:31N 40°52' E 029°12'0 0.1
2015-Apr-23 00:31N 40°52' E 029°12'0 0.0
2015-Apr-22 23:31N 40°52' E 029°12'0 0.0
2015-Apr-22 22:30N 40°52' E 029°12'0 0.0
2015-Apr-22 21:31N 40°52' E 029°12'0 0.0
2015-Apr-22 20:30N 40°52' E 029°12'0 0.0
2015-Apr-22 19:31N 40°52' E 029°12'0 0.0
2015-Apr-22 18:31N 40°52' E 029°12'0 0.0
2015-Apr-22 17:31N 40°52' E 029°12'0 0.0
2015-Apr-22 16:25N 40°52' E 029°12'0 0.0
2015-Apr-22 15:25N 40°52' E 029°12'0 0.0
2015-Apr-22 14:31N 40°52' E 029°12'0 0.0
2015-Apr-22 13:31N 40°52' E 029°12'0 0.1
2015-Apr-22 12:25N 40°52' E 029°12'0 0.3
2015-Apr-22 11:33N 40°52' E 029°12'7 7.4
2015-Apr-22 10:33N 40°45' E 029°17'9 7.7
2015-Apr-22 09:26N 40°45' E 029°28'6 7.1
2015-Apr-22 08:33N 40°45' E 029°37'  
2015-Apr-19 07:31N 40°45' E 029°28'7 7.5
2015-Apr-19 06:33N 40°44' E 029°19'5 5.1
2015-Apr-19 05:33N 40°45' E 029°13'6 6.5
2015-Apr-19 04:33N 40°48' E 029°05'7 7.1
2015-Apr-19 03:32N 40°52' E 028°57'18 8.3
2015-Apr-19 01:25N 41°09' E 029°03'  
Track history (hours):
 
Tides and Currents Weather Stations Pressure Air Temp Water Temp Dewpoint Dewpoint Depression Visibility Wind Speed Wind Dir Waves Ship Positions

Armony

Last reported at 2015-Apr-28 12:28 UTC. Time now 2015-May-03 10:50 UTC.
Position N 41°17' E 029°01'.

Length 70 m; draft 4.5 m.

Type: Ship. MMSI: 677041700.

Date/timePositionNaut miles runAvg speedWind from/ knotsBaromVisibWave heightAir tempDewpointWater temp
2015-Apr-28 12:28N 41°17' E 029°01'  
2015-Apr-23 08:33N 40°58' E 028°60'6 5.6
2015-Apr-23 07:32N 40°53' E 029°01'7 6.9
2015-Apr-23 06:33N 40°51' E 029°10'2 1.7
2015-Apr-23 05:30N 40°52' E 029°12'0 0.0
2015-Apr-23 04:25N 40°52' E 029°12'0 0.0
2015-Apr-23 03:13N 40°52' E 029°12'0 0.0
2015-Apr-23 02:25N 40°52' E 029°12'0 0.1
2015-Apr-23 01:31N 40°52' E 029°12'0 0.1
2015-Apr-23 00:31N 40°52' E 029°12'0 0.0
2015-Apr-22 23:31N 40°52' E 029°12'0 0.0
2015-Apr-22 22:30N 40°52' E 029°12'0 0.0
2015-Apr-22 21:31N 40°52' E 029°12'0 0.0
2015-Apr-22 20:30N 40°52' E 029°12'0 0.0
2015-Apr-22 19:31N 40°52' E 029°12'0 0.0
2015-Apr-22 18:31N 40°52' E 029°12'0 0.0
2015-Apr-22 17:31N 40°52' E 029°12'0 0.0
2015-Apr-22 16:25N 40°52' E 029°12'0 0.0
2015-Apr-22 15:25N 40°52' E 029°12'0 0.0
2015-Apr-22 14:31N 40°52' E 029°12'0 0.0
2015-Apr-22 13:31N 40°52' E 029°12'0 0.1
2015-Apr-22 12:25N 40°52' E 029°12'0 0.3
2015-Apr-22 11:33N 40°52' E 029°12'7 7.4
2015-Apr-22 10:33N 40°45' E 029°17'9 7.7
2015-Apr-22 09:26N 40°45' E 029°28'6 7.1
2015-Apr-22 08:33N 40°45' E 029°37'  
2015-Apr-19 07:31N 40°45' E 029°28'7 7.5
2015-Apr-19 06:33N 40°44' E 029°19'5 5.1
2015-Apr-19 05:33N 40°45' E 029°13'6 6.5
2015-Apr-19 04:33N 40°48' E 029°05'7 7.1
2015-Apr-19 03:32N 40°52' E 028°57'18 8.3
2015-Apr-19 01:25N 41°09' E 029°03'  

Dump ship's entire track history